Marraquexe, Marrocos

10:23 AM WEST em 23 de Julho de 2014 (GMT +0100)
Menara (GMMX) Elev 1529 ft | 31.61 °N, 8.04 °W | Change Station

Current weather conditions updated 23 minutes ago

Clear
Céu Limpo
73 °F
Aparente 73 °F
N
4
Vento Variável Vento de Variável

Hoje prevê-se estar Mais Frio do que ontem.

Hoje
Máxima -- | Mínima -- °F
--% Possibilidade de Precip.
Ontem
Máxima -- | Mínima -- °F
Precip. -- pol
6:42 AM 8:34 PM
Quarto minguante, 11% visible
Pressão 29.98 pol
Visibilidade -9999.0 milhas
Nuvens
Ponto de Orvalho 63 °F
Humidade 69%
Chuva 0.00 pol
Altura de Neve Não disponível
UV Não disponível
Pólen Não disponível
Qualidade do Ar Não disponível
Flu Activity Não disponível
METAR GMMX 230900Z VRB03KT CAVOK 23/17 Q1015 NOSIG

More Conditions Fewer Conditions

Pressão 29.98 pol
Visibilidade -9999.0 milhas
Nuvens
Ponto de Orvalho 63 °F
Humidade 69%
Chuva 0.00 pol
Altura de Neve Não disponível
UV Não disponível
Pólen Não disponível
Qualidade do Ar Não disponível
Flu Activity Não disponível
METAR GMMX 230900Z VRB03KT CAVOK 23/17 Q1015 NOSIG

More Conditions Fewer Conditions

10-Day Weather Forecast

Almanac

Astronomia

Jul. 23, 2014 Nascer Pôr
Hora atual 06:42 WEST 20:34 WEST
Crepúsculo civil 06:15 WEST 21:01 WEST
Crepúsculo náutico 05:42 WEST 21:34 WEST
Crepúsculo astronómico 05:07 WEST 22:08 WEST
Lua 03:49 WEST 17:53 WEST
Comprimento da luz visível 14h 46m
Duração do Dia
13h 52m
Tomorrow will be 1m 14s shorter.
Quarto minguante, 11% of the Moon is Illuminated
Hoje
Quarto minguante
Jul 26
Nova
Ago 3
Quarto crescente
Ago 10
Lua cheia
Ago 17
Quarto minguante

Extremos de ontem

Altitude na localidade Altura mais baixa na localidade

Community

WunderPhotos

Upload Photos

1,736,535 fotografias inseridas!

Nearby

Actividade Sísmisca

Cidade Distância Mag. Hora & Data
Não há notícias de atividade sísmica recente perto de si.
Mínima magnitude apresentada é 2.5.

Temperaturas das Águas Costeiras

Local Temperatura
Não há estações a reportar dados

Estações Meteorológicas Próximas

Não há estações meteorológicas nesta área.